Time;durP1;ratioP1;P1;durP2;ratioP2;P2;SDS_P1;SDS_P2;PMS_P1;PMS_P2;Temp;Humidity;BMP_temperature;BMP_pressure;BME280_temperature;BME280_humidity;BME280_pressure;Samples;Min_cycle;Max_cycle;Signal;HPM_P1;HPM_P2
2021/01/16 00:00:23;;;;;;;32.28;19.50;;;;;;;0.17;77.40;103088.94;5088700;28;19919;-78
2021/01/16 00:02:49;;;;;;;31.15;19.58;;;;;;;0.18;78.37;103079.97;5097519;28;20028;-78
2021/01/16 00:05:17;;;;;;;30.95;19.75;;;;;;;0.19;78.94;103081.69;5096352;28;20471;-78
2021/01/16 00:07:44;;;;;;;36.80;19.40;;;;;;;0.21;78.33;103078.94;5097716;28;20447;-78
2021/01/16 00:10:11;;;;;;;28.85;18.98;;;;;;;0.19;77.48;103076.34;5096066;28;20433;-78
2021/01/16 00:12:36;;;;;;;27.58;18.48;;;;;;;0.19;76.98;103081.69;5097308;28;20024;-78
2021/01/16 00:15:02;;;;;;;31.27;19.40;;;;;;;0.18;77.36;103074.66;5096171;28;20427;-78
2021/01/16 00:17:27;;;;;;;28.45;18.90;;;;;;;0.22;78.32;103076.16;5096568;28;20012;-79
2021/01/16 00:19:53;;;;;;;26.17;17.20;;;;;;;0.20;77.40;103077.22;5097202;28;20028;-78
2021/01/16 00:22:18;;;;;;;25.53;17.80;;;;;;;0.22;77.15;103069.97;5127258;27;20337;-76
2021/01/16 00:24:43;;;;;;;29.67;18.37;;;;;;;0.21;77.81;103071.78;5093912;28;20043;-77
2021/01/16 00:27:09;;;;;;;27.73;18.53;;;;;;;0.22;77.14;103076.16;5093711;28;20039;-78
2021/01/16 00:29:34;;;;;;;37.60;18.37;;;;;;;0.23;76.99;103066.34;5095337;28;20114;-78
2021/01/16 00:31:59;;;;;;;26.60;17.23;;;;;;;0.23;76.67;103077.00;5095247;28;20047;-78
2021/01/16 00:34:24;;;;;;;27.93;17.90;;;;;;;0.23;76.65;103074.34;5095319;28;20024;-78
2021/01/16 00:36:50;;;;;;;29.47;17.30;;;;;;;0.23;76.60;103067.19;5096260;28;20027;-78
2021/01/16 00:39:15;;;;;;;32.37;19.13;;;;;;;0.24;76.25;103068.94;5096572;28;20049;-78
2021/01/16 00:41:40;;;;;;;29.37;17.80;;;;;;;0.22;76.61;103065.50;5096811;28;20353;-78
2021/01/16 00:44:06;;;;;;;26.83;17.77;;;;;;;0.21;76.93;103071.78;5096591;28;20015;-78
2021/01/16 00:46:33;;;;;;;25.42;17.05;;;;;;;0.23;76.37;103067.19;5096501;28;20023;-78
2021/01/16 00:48:58;;;;;;;24.98;16.42;;;;;;;0.20;76.05;103062.13;5095492;28;20024;-78
2021/01/16 00:51:24;;;;;;;25.47;16.37;;;;;;;0.21;77.49;103066.47;5096174;28;20020;-78
2021/01/16 00:53:49;;;;;;;27.77;17.70;;;;;;;0.20;77.82;103059.47;5095101;28;20040;-78
2021/01/16 00:56:14;;;;;;;27.40;17.37;;;;;;;0.21;76.20;103068.28;5095982;28;20333;-78
2021/01/16 00:58:40;;;;;;;23.23;16.13;;;;;;;0.19;76.08;103068.38;5096537;28;20307;-78
2021/01/16 01:01:05;;;;;;;25.93;16.77;;;;;;;0.19;75.96;103065.72;5095040;28;20464;-77
2021/01/16 01:03:30;;;;;;;24.97;16.00;;;;;;;0.16;75.75;103049.97;5091942;28;20098;-78
2021/01/16 01:05:56;;;;;;;26.17;15.97;;;;;;;0.21;75.50;103058.50;5088111;28;20084;-79
2021/01/16 01:08:30;;;;;;;25.00;17.88;;;;;;;0.19;76.00;103055.06;5095020;28;20044;-78
2021/01/16 01:10:56;;;;;;;22.33;15.32;;;;;;;0.25;76.10;103053.81;5095305;28;20100;-78
2021/01/16 01:13:22;;;;;;;26.27;16.90;;;;;;;0.24;75.42;103060.94;5094020;28;20038;-78
2021/01/16 01:15:47;;;;;;;26.07;17.03;;;;;;;0.24;75.67;103057.41;5093760;28;20466;-79
2021/01/16 01:18:12;;;;;;;24.57;16.67;;;;;;;0.24;74.93;103052.97;5092951;28;20028;-79
2021/01/16 01:20:38;;;;;;;22.37;15.07;;;;;;;0.25;74.94;103054.66;5094467;28;20026;-79
2021/01/16 01:23:03;;;;;;;23.97;17.00;;;;;;;0.29;74.73;103054.41;5092443;28;20436;-78
2021/01/16 01:25:29;;;;;;;24.43;16.47;;;;;;;0.24;75.09;103047.63;5092217;28;20024;-78
2021/01/16 01:27:56;;;;;;;23.83;16.50;;;;;;;0.28;75.98;103042.06;5093701;28;20059;-78
2021/01/16 01:30:23;;;;;;;25.33;16.95;;;;;;;0.25;74.89;103044.00;5092815;28;20029;-78
2021/01/16 01:32:52;;;;;;;24.98;17.15;;;;;;;0.27;75.89;103037.72;5094488;28;20020;-78
2021/01/16 01:35:18;;;;;;;25.48;16.67;;;;;;;0.20;75.22;103039.97;5092953;28;20020;-78
2021/01/16 01:37:46;;;;;;;26.63;16.98;;;;;;;0.25;74.76;103044.00;5093778;28;20066;-79
2021/01/16 01:40:13;;;;;;;22.60;16.42;;;;;;;0.27;75.17;103040.38;5093505;28;20027;-78
2021/01/16 01:42:39;;;;;;;25.38;16.88;;;;;;;0.25;75.48;103036.03;5093785;28;20032;-78
2021/01/16 01:45:10;;;;;;;26.27;17.60;;;;;;;0.25;75.18;103027.19;5095985;28;20028;-78
2021/01/16 01:47:37;;;;;;;26.77;17.85;;;;;;;0.22;76.06;103028.25;5094845;28;20035;-79
2021/01/16 01:50:05;;;;;;;28.23;18.13;;;;;;;0.22;75.87;103022.94;5095600;28;20122;-79
2021/01/16 01:52:41;;;;;;;22.92;16.40;;;;;;;0.22;75.84;103022.94;5094783;28;20119;-78
2021/01/16 01:55:09;;;;;;;23.98;16.75;;;;;;;0.26;76.25;103023.56;5095967;28;20039;-79
2021/01/16 01:57:37;;;;;;;25.20;16.75;;;;;;;0.23;75.23;103010.47;5093230;28;20036;-79
2021/01/16 02:00:09;;;;;;;25.00;16.75;;;;;;;0.22;75.13;103006.13;5094149;28;20020;-78
2021/01/16 02:02:36;;;;;;;26.52;17.30;;;;;;;0.25;75.01;103016.56;5092471;28;20054;-79
2021/01/16 02:05:03;;;;;;;26.45;17.42;;;;;;;0.22;75.77;103012.28;5087184;28;20020;-79
2021/01/16 02:07:37;;;;;;;24.30;17.35;;;;;;;0.27;74.84;103021.75;5092039;28;20283;-78
2021/01/16 02:10:07;;;;;;;23.83;15.93;;;;;;;0.23;75.39;103008.66;5086432;28;20024;-79
2021/01/16 02:12:33;;;;;;;26.70;17.55;;;;;;;0.25;74.45;103013.88;5090590;28;20133;-78
2021/01/16 02:15:16;;;;;;;26.97;17.10;;;;;;;0.23;74.99;103002.50;5093848;28;20032;-78
2021/01/16 02:17:56;;;;;;;25.33;17.48;;;;;;;0.26;74.47;103023.56;5092995;28;20107;-79
2021/01/16 02:20:32;;;;;;;24.92;17.35;;;;;;;0.22;74.75;103017.59;5095146;28;20111;-79
2021/01/16 02:23:06;;;;;;;26.70;17.80;;;;;;;0.28;75.75;103015.47;5094072;28;20031;-79
2021/01/16 02:25:41;;;;;;;23.58;15.95;;;;;;;0.28;75.27;103015.47;5095867;28;20333;-78
2021/01/16 02:28:07;;;;;;;23.73;17.05;;;;;;;0.25;74.17;103004.09;5095105;28;20309;-78
2021/01/16 02:30:35;;;;;;;26.05;17.08;;;;;;;0.23;75.28;102998.00;5095348;28;20032;-78
2021/01/16 02:33:03;;;;;;;25.65;17.35;;;;;;;0.24;75.38;103002.41;5095361;28;20131;-79
2021/01/16 02:35:31;;;;;;;26.23;17.67;;;;;;;0.23;75.39;103003.34;5095492;28;20023;-79
2021/01/16 02:38:07;;;;;;;25.05;17.33;;;;;;;0.24;74.60;103005.06;5095070;28;20044;-78
2021/01/16 02:40:40;;;;;;;23.33;17.23;;;;;;;0.20;74.94;102992.94;5095252;28;20028;-78
2021/01/16 02:43:27;;;;;;;27.33;17.33;;;;;;;0.21;75.14;102993.78;5094023;28;20310;-78
2021/01/16 02:46:15;;;;;;;26.02;16.70;;;;;;;0.20;75.39;102987.59;5095756;28;20429;-79
2021/01/16 02:48:57;;;;;;;26.67;18.58;;;;;;;0.19;75.38;102990.34;5094137;28;20034;-78
2021/01/16 02:51:30;;;;;;;27.00;16.83;;;;;;;0.18;75.22;102988.66;5095208;28;20027;-79
2021/01/16 02:53:56;;;;;;;28.58;19.02;;;;;;;0.16;75.56;102986.13;5090674;28;20050;-79
2021/01/16 02:56:27;;;;;;;27.05;17.92;;;;;;;0.17;75.45;102986.97;5095384;28;20115;-79
2021/01/16 02:58:52;;;;;;;27.83;17.77;;;;;;;0.13;76.11;102981.00;5095100;28;20370;-78
2021/01/16 03:01:18;;;;;;;26.77;18.50;;;;;;;0.13;76.01;102977.50;5095645;28;20105;-79
2021/01/16 03:03:43;;;;;;;30.57;18.30;;;;;;;0.15;76.06;102981.78;5096855;28;20112;-80
2021/01/16 03:06:09;;;;;;;27.37;17.07;;;;;;;0.12;75.42;102984.63;5098989;28;20027;-80
2021/01/16 03:08:34;;;;;;;27.25;18.00;;;;;;;0.14;75.66;102980.03;5098772;28;20314;-80
2021/01/16 03:11:01;;;;;;;26.33;17.97;;;;;;;0.15;75.98;102976.44;5095276;28;20024;-81
2021/01/16 03:13:29;;;;;;;26.73;17.73;;;;;;;0.12;76.19;102974.00;5098759;28;20035;-80
2021/01/16 03:15:57;;;;;;;29.30;18.33;;;;;;;0.09;77.06;102962.72;5097560;28;20024;-80
2021/01/16 03:18:23;;;;;;;28.67;18.02;;;;;;;0.12;76.29;102975.81;5098189;28;20103;-80
2021/01/16 03:20:49;;;;;;;26.33;17.65;;;;;;;0.11;76.51;102966.13;5097084;28;20065;-80
2021/01/16 03:23:15;;;;;;;28.45;18.85;;;;;;;0.09;76.15;102954.75;5098122;28;20019;-80
2021/01/16 03:25:41;;;;;;;26.30;17.40;;;;;;;0.09;77.25;102955.59;5097606;28;20107;-80
2021/01/16 03:28:07;;;;;;;28.02;17.77;;;;;;;0.07;77.08;102952.19;5098684;28;20027;-80
2021/01/16 03:30:32;;;;;;;26.20;18.23;;;;;;;0.08;76.86;102967.19;5096739;28;20104;-80
2021/01/16 03:32:57;;;;;;;28.23;18.53;;;;;;;0.09;75.85;102958.25;5098314;28;20122;-81
2021/01/16 03:35:25;;;;;;;29.47;18.67;;;;;;;0.09;75.94;102952.94;5096553;28;20039;-81
2021/01/16 03:37:52;;;;;;;28.58;18.52;;;;;;;0.09;76.40;102949.41;5097655;28;20082;-81
2021/01/16 03:40:19;;;;;;;27.95;18.67;;;;;;;0.11;76.32;102951.03;5096551;28;20314;-80
2021/01/16 03:42:45;;;;;;;25.23;17.90;;;;;;;0.09;76.11;102944.94;5098437;28;20077;-80
2021/01/16 03:45:13;;;;;;;28.87;19.43;;;;;;;0.12;77.30;102946.53;5096828;28;20032;-80
2021/01/16 03:47:38;;;;;;;28.70;18.48;;;;;;;0.06;77.04;102942.53;5098055;28;20028;-80
2021/01/16 03:50:05;;;;;;;27.93;18.37;;;;;;;0.07;76.27;102936.25;5097750;28;20294;-80
2021/01/16 03:52:34;;;;;;;25.85;17.83;;;;;;;0.06;76.30;102933.69;5098003;28;20373;-80
2021/01/16 03:54:59;;;;;;;31.98;18.98;;;;;;;0.03;77.02;102931.25;5097724;28;20069;-80
2021/01/16 03:57:25;;;;;;;27.40;18.67;;;;;;;0.06;76.58;102931.88;5097948;28;20413;-80
2021/01/16 03:59:51;;;;;;;28.17;18.30;;;;;;;0.02;76.50;102926.91;5098014;28;20028;-81
2021/01/16 04:02:17;;;;;;;31.48;19.08;;;;;;;0.04;77.23;102927.63;5097860;28;20073;-80
2021/01/16 04:04:46;;;;;;;27.30;19.25;;;;;;;0.02;77.98;102914.44;5096478;28;20422;-80
2021/01/16 04:07:12;;;;;;;29.45;18.95;;;;;;;0.02;77.40;102914.44;5095744;28;20089;-81
2021/01/16 04:09:37;;;;;;;28.55;18.73;;;;;;;0.02;77.84;102902.94;5097784;28;20032;-80
2021/01/16 04:12:03;;;;;;;28.53;19.60;;;;;;;0.04;77.68;102914.31;5095917;28;20134;-80
2021/01/16 04:14:28;;;;;;;30.87;19.97;;;;;;;-0.01;77.29;102909.34;5095742;28;20734;-80
2021/01/16 04:16:54;;;;;;;28.20;18.60;;;;;;;0.00;77.23;102916.38;5097417;28;20284;-80
2021/01/16 04:19:19;;;;;;;40.60;21.53;;;;;;;0.02;77.75;102922.41;5095933;28;20325;-80
2021/01/16 04:21:45;;;;;;;27.30;18.77;;;;;;;0.01;77.11;102918.06;5097431;28;20024;-80
2021/01/16 04:24:11;;;;;;;30.45;20.27;;;;;;;-0.03;77.76;102911.25;5096815;28;20372;-80
2021/01/16 04:26:36;;;;;;;30.65;18.58;;;;;;;-0.01;78.05;102909.34;5097545;28;20028;-80
2021/01/16 04:29:02;;;;;;;29.43;19.90;;;;;;;0.02;77.62;102911.78;5094599;28;20345;-80
2021/01/16 04:31:27;;;;;;;30.83;19.27;;;;;;;0.00;78.92;102913.72;5096883;28;20035;-80
2021/01/16 04:33:52;;;;;;;29.03;19.40;;;;;;;0.01;77.77;102907.44;5095912;28;20033;-80
2021/01/16 04:36:18;;;;;;;27.30;19.30;;;;;;;-0.01;77.58;102909.34;5096925;28;20410;-80
2021/01/16 04:38:43;;;;;;;29.07;19.03;;;;;;;0.00;77.72;102895.09;5096059;28;20055;-80
2021/01/16 04:41:09;;;;;;;27.33;18.70;;;;;;;-0.01;77.42;102902.19;5093944;28;20044;-80
2021/01/16 04:43:35;;;;;;;;;;;;;;;0.04;77.16;102899.22;5096935;28;20043;-80
2021/01/16 04:46:06;;;;;;;27.15;18.40;;;;;;;0.02;77.20;102892.31;5096486;28;19930;-80
2021/01/16 04:48:36;;;;;;;28.60;18.55;;;;;;;0.02;77.32;102889.66;5097013;28;20082;-80
2021/01/16 04:51:03;;;;;;;30.50;19.77;;;;;;;-0.04;77.03;102883.81;5115739;27;20032;-80
2021/01/16 04:53:37;;;;;;;32.55;19.95;;;;;;;0.01;76.59;102887.97;5092871;28;20027;-80
2021/01/16 04:56:07;;;;;;;29.92;19.83;;;;;;;0.00;77.23;102887.13;5096414;28;20034;-80
2021/01/16 04:58:35;;;;;;;29.58;20.80;;;;;;;-0.02;77.15;102881.88;5095269;28;20434;-80
2021/01/16 05:01:03;;;;;;;28.83;19.75;;;;;;;-0.03;77.42;102882.00;5095554;28;20028;-80
2021/01/16 05:03:37;;;;;;;36.25;20.20;;;;;;;-0.01;77.44;102885.41;5096324;28;20338;-80
2021/01/16 05:06:06;;;;;;;35.53;21.60;;;;;;;-0.03;76.73;102879.34;5096697;28;20429;-80
2021/01/16 05:08:32;;;;;;;29.33;18.65;;;;;;;-0.03;76.98;102874.03;5095338;28;20127;-80
2021/01/16 05:10:59;;;;;;;32.08;19.63;;;;;;;-0.04;77.29;102877.66;5096319;28;20103;-80
2021/01/16 05:13:34;;;;;;;30.02;20.35;;;;;;;-0.08;76.96;102863.72;5095932;28;20035;-80
2021/01/16 05:16:00;;;;;;;27.35;18.48;;;;;;;-0.06;77.30;102859.13;5095089;28;20036;-80
2021/01/16 05:18:26;;;;;;;31.13;20.88;;;;;;;-0.06;77.63;102863.59;5096236;28;20031;-80
2021/01/16 05:20:51;;;;;;;30.33;19.77;;;;;;;-0.08;77.39;102858.41;5096540;28;20035;-80
2021/01/16 05:23:17;;;;;;;31.20;19.23;;;;;;;-0.07;77.84;102856.59;5095769;28;20278;-80
2021/01/16 05:25:44;;;;;;;26.30;18.93;;;;;;;-0.06;77.84;102861.78;5095829;28;20036;-79
2021/01/16 05:28:11;;;;;;;28.20;19.30;;;;;;;-0.08;77.57;102858.41;5095903;28;20424;-79
2021/01/16 05:30:48;;;;;;;30.48;19.33;;;;;;;-0.07;77.50;102851.28;5096342;28;20093;-79
2021/01/16 05:33:14;;;;;;;30.65;19.63;;;;;;;-0.13;78.02;102844.59;5095754;28;20032;-80
2021/01/16 05:35:39;;;;;;;29.92;19.30;;;;;;;-0.10;77.34;102839.06;5096266;28;20039;-80
2021/01/16 05:38:06;;;;;;;29.00;19.03;;;;;;;-0.11;77.09;102839.16;5095629;28;20127;-79
2021/01/16 05:40:32;;;;;;;29.67;19.73;;;;;;;-0.13;78.09;102830.44;5095991;28;20047;-80
2021/01/16 05:43:00;;;;;;;28.40;18.92;;;;;;;-0.11;77.41;102833.84;5095967;28;20024;-80
2021/01/16 05:45:26;;;;;;;30.35;19.50;;;;;;;-0.12;77.74;102833.00;5095837;28;20028;-80
2021/01/16 05:47:52;;;;;;;37.08;20.65;;;;;;;-0.12;78.02;102834.81;5095718;28;20026;-80
2021/01/16 05:50:23;;;;;;;30.17;20.27;;;;;;;-0.13;77.42;102825.13;5095712;28;20214;-80
2021/01/16 05:52:49;;;;;;;32.08;19.63;;;;;;;-0.13;78.41;102825.97;5095672;28;20142;-80
2021/01/16 05:55:16;;;;;;;25.17;18.60;;;;;;;-0.14;77.74;102824.28;5095610;28;20052;-80
2021/01/16 05:57:47;;;;;;;31.08;20.63;;;;;;;-0.11;77.77;102832.03;5095929;28;20094;-80
2021/01/16 06:00:22;;;;;;;28.65;19.98;;;;;;;-0.13;77.74;102831.31;5094469;28;20130;-80
2021/01/16 06:02:48;;;;;;;31.63;21.20;;;;;;;-0.14;77.66;102828.75;5095910;28;20020;-80
2021/01/16 06:05:14;;;;;;;28.58;19.00;;;;;;;-0.17;78.31;102810.34;5095365;28;20436;-79
2021/01/16 06:07:39;;;;;;;30.70;20.13;;;;;;;-0.16;77.55;102818.22;5095847;28;20107;-79
2021/01/16 06:10:12;;;;;;;33.83;20.43;;;;;;;-0.15;77.45;102805.75;5095555;28;20031;-79
2021/01/16 06:12:38;;;;;;;29.15;18.55;;;;;;;-0.15;77.70;102817.25;5081769;28;20072;-80
2021/01/16 06:15:13;;;;;;;30.33;19.98;;;;;;;-0.14;78.39;102804.81;5095249;28;20425;-79
2021/01/16 06:17:43;;;;;;;30.20;19.17;;;;;;;-0.15;78.27;102808.44;5095759;28;20028;-80
2021/01/16 06:20:10;;;;;;;27.67;19.20;;;;;;;-0.16;78.01;102806.72;5095384;28;20024;-80
2021/01/16 06:22:40;;;;;;;28.23;18.85;;;;;;;-0.18;77.86;102803.34;5095209;28;20036;-80
2021/01/16 06:25:16;;;;;;;29.02;19.55;;;;;;;-0.14;77.98;102812.81;5093774;28;20050;-80
2021/01/16 06:27:44;;;;;;;30.00;20.77;;;;;;;-0.19;78.12;102793.69;5094321;28;20368;-80
2021/01/16 06:30:14;;;;;;;28.70;19.60;;;;;;;-0.18;78.20;102803.34;5092752;28;20036;-80
2021/01/16 06:32:48;;;;;;;29.85;20.15;;;;;;;-0.19;78.28;102806.97;5089296;28;20024;-80
2021/01/16 06:35:14;;;;;;;29.92;20.90;;;;;;;-0.21;78.65;102793.78;5091086;28;20024;-81
2021/01/16 06:37:46;;;;;;;29.55;19.77;;;;;;;-0.22;78.31;102788.56;5090216;28;20101;-80
2021/01/16 06:40:13;;;;;;;29.83;19.92;;;;;;;-0.24;78.65;102795.81;5095417;28;20371;-80
2021/01/16 06:42:40;;;;;;;33.35;20.52;;;;;;;-0.19;79.56;102805.16;5086515;28;20037;-81
2021/01/16 06:45:06;;;;;;;;;;;;;;;-0.14;78.45;102802.16;5093532;28;20023;-81
2021/01/16 06:47:33;;;;;;;31.67;19.73;;;;;;;-0.26;78.70;102793.25;5089894;28;19916;-81
2021/01/16 06:49:59;;;;;;;29.52;19.92;;;;;;;-0.19;78.35;102791.03;5091039;28;20031;-80
2021/01/16 06:52:32;;;;;;;28.80;20.42;;;;;;;-0.26;78.63;102787.94;5095430;28;20020;-81
2021/01/16 06:54:58;;;;;;;30.85;21.15;;;;;;;-0.26;78.34;102788.78;5095844;28;20115;-80
2021/01/16 06:57:23;;;;;;;38.00;21.23;;;;;;;-0.24;78.28;102785.16;5097623;28;20052;-79
2021/01/16 06:59:49;;;;;;;33.60;20.83;;;;;;;-0.23;78.88;102797.53;5089754;28;20036;-80
2021/01/16 07:02:34;;;;;;;31.93;20.57;;;;;;;-0.20;78.94;102799.94;5088205;28;20023;-80
2021/01/16 07:05:03;;;;;;;28.85;19.17;;;;;;;-0.26;78.11;102790.59;5091757;28;20024;-81
2021/01/16 07:07:41;;;;;;;31.35;19.58;;;;;;;-0.21;79.17;102787.59;5095250;28;20402;-83
2021/01/16 07:10:13;;;;;;;30.77;20.75;;;;;;;-0.21;78.45;102791.13;5095051;28;20052;-83
2021/01/16 07:12:46;;;;;;;32.00;19.38;;;;;;;-0.23;78.98;102789.53;5089669;28;20035;-82
2021/01/16 07:15:12;;;;;;;28.40;20.33;;;;;;;-0.27;78.90;102775.63;5098240;28;20032;-80
2021/01/16 07:17:38;;;;;;;30.05;20.35;;;;;;;-0.23;78.96;102777.09;5090937;28;20016;-80
2021/01/16 07:20:05;;;;;;;33.03;22.83;;;;;;;-0.22;77.82;102776.13;5096823;28;20077;-78
2021/01/16 07:22:33;;;;;;;28.38;19.70;;;;;;;-0.19;78.02;102772.41;5092521;28;20016;-82
2021/01/16 07:25:01;;;;;;;30.30;20.33;;;;;;;-0.21;78.47;102774.31;5079765;28;20338;-80
2021/01/16 07:27:28;;;;;;;28.45;19.90;;;;;;;-0.21;78.58;102769.84;5082700;28;20050;-82
2021/01/16 07:29:58;;;;;;;36.63;20.70;;;;;;;-0.20;78.12;102768.03;5089410;28;20341;-80
2021/01/16 07:32:45;;;;;;;29.92;19.42;;;;;;;-0.12;77.17;102773.63;5083794;28;20039;-81
2021/01/16 07:35:15;;;;;;;28.25;19.15;;;;;;;-0.10;77.60;102769.03;5090948;28;20421;-81
2021/01/16 07:37:42;;;;;;;26.98;19.23;;;;;;;-0.12;77.36;102763.84;5082091;28;20057;-81
2021/01/16 07:40:20;;;;;;;31.88;19.75;;;;;;;-0.14;77.36;102771.09;5089616;28;20034;-81
2021/01/16 07:42:50;;;;;;;30.13;17.98;;;;;;;-0.14;77.46;102762.28;5094277;28;20131;-81
2021/01/16 07:45:25;;;;;;;29.90;19.70;;;;;;;-0.13;77.81;102764.81;5085874;28;20029;-81
2021/01/16 07:47:56;;;;;;;29.10;19.90;;;;;;;-0.13;76.85;102772.78;5095499;28;20064;-81
2021/01/16 07:50:27;;;;;;;30.00;19.88;;;;;;;-0.12;77.18;102763.84;5088158;28;20290;-82
2021/01/16 07:52:54;;;;;;;28.52;18.33;;;;;;;-0.12;76.51;102758.53;5097865;28;20055;-81
2021/01/16 07:55:20;;;;;;;30.85;20.05;;;;;;;-0.08;76.83;102756.50;5097921;28;20081;-82
2021/01/16 07:57:50;;;;;;;28.23;19.35;;;;;;;-0.10;76.97;102759.28;5096543;28;20040;-81
2021/01/16 08:00:18;;;;;;;31.65;19.92;;;;;;;-0.11;76.15;102749.56;5096777;28;20328;-81
2021/01/16 08:03:23;;;;;;;28.00;18.73;;;;;;;-0.06;75.73;102749.22;5097586;28;20111;-82
2021/01/16 08:05:58;;;;;;;27.95;18.90;;;;;;;-0.08;76.60;102752.03;5039543;28;20450;-82
2021/01/16 08:08:40;;;;;;;31.52;18.15;;;;;;;-0.07;75.44;102747.53;5055837;28;20044;-82
2021/01/16 08:11:11;;;;;;;26.58;18.42;;;;;;;-0.06;76.33;102746.56;5048112;28;20401;-81
2021/01/16 08:13:37;;;;;;;27.80;19.48;;;;;;;-0.10;74.91;102747.75;5054788;28;20040;-81
2021/01/16 08:16:02;;;;;;;31.33;19.70;;;;;;;-0.08;75.40;102746.69;5056579;28;20037;-80
2021/01/16 08:18:31;;;;;;;29.20;20.33;;;;;;;-0.02;76.05;102748.06;5055740;28;20032;-80
2021/01/16 08:21:06;;;;;;;28.42;18.98;;;;;;;-0.02;75.29;102743.56;5052534;28;20033;-82
2021/01/16 08:23:46;;;;;;;31.33;21.15;;;;;;;-0.02;75.35;102740.91;5055010;28;20365;-80
2021/01/16 08:26:11;;;;;;;27.73;19.20;;;;;;;-0.01;75.43;102739.09;5055346;28;20082;-80
2021/01/16 08:28:37;;;;;;;30.17;19.90;;;;;;;-0.02;74.35;102738.25;5055669;28;20032;-78
2021/01/16 08:31:03;;;;;;;27.88;19.40;;;;;;;-0.03;75.37;102728.59;5055326;28;20411;-79
2021/01/16 08:33:35;;;;;;;31.63;21.73;;;;;;;0.02;74.65;102727.41;5055262;28;20037;-79
2021/01/16 08:36:18;;;;;;;30.58;20.33;;;;;;;0.05;74.80;102733.34;5055331;28;20035;-79
2021/01/16 08:38:45;;;;;;;28.10;19.35;;;;;;;0.02;73.69;102722.91;5055264;28;20378;-80
2021/01/16 08:41:10;;;;;;;29.60;19.48;;;;;;;0.04;74.44;102728.13;5068530;28;20036;-79
2021/01/16 08:43:43;;;;;;;31.77;20.02;;;;;;;0.06;74.92;102724.38;5097500;28;20031;-80
2021/01/16 08:46:15;;;;;;;31.65;19.65;;;;;;;0.06;74.72;102723.53;5110734;28;20494;-80
2021/01/16 08:48:56;;;;;;;30.88;20.55;;;;;;;0.08;74.46;102730.44;5096320;28;20023;-81
2021/01/16 08:51:39;;;;;;;31.52;20.77;;;;;;;0.09;74.39;102717.97;5097187;28;20031;-80
2021/01/16 08:54:21;;;;;;;31.70;20.55;;;;;;;0.09;75.17;102707.31;5097175;28;20031;-80
2021/01/16 08:57:12;;;;;;;31.10;20.73;;;;;;;0.10;74.04;102712.56;5095780;28;20023;-79
2021/01/16 08:59:38;;;;;;;27.77;19.38;;;;;;;0.11;73.73;102703.59;5096130;28;20111;-80
2021/01/16 09:02:09;;;;;;;32.70;21.30;;;;;;;0.12;74.31;102707.94;5095946;28;20147;-81
2021/01/16 09:04:39;;;;;;;31.48;21.48;;;;;;;0.10;75.04;102703.69;5097135;28;20020;-79
2021/01/16 09:07:20;;;;;;;35.00;20.60;;;;;;;0.15;74.54;102704.22;5096667;28;20102;-80
2021/01/16 09:09:56;;;;;;;31.58;21.95;;;;;;;0.15;75.36;102705.06;5130159;27;20028;-79
2021/01/16 09:12:28;;;;;;;31.80;20.55;;;;;;;0.18;74.51;102694.16;5096855;28;20306;-81
2021/01/16 09:15:17;;;;;;;33.28;21.52;;;;;;;0.24;75.10;102693.72;5096870;28;20035;-79
2021/01/16 09:18:14;;;;;;;34.90;20.10;;;;;;;0.21;74.82;102691.28;5096403;28;20133;-80
2021/01/16 09:20:56;;;;;;;31.88;21.27;;;;;;;0.22;74.39;102692.97;5096480;28;20024;-80
2021/01/16 09:23:23;;;;;;;35.63;22.35;;;;;;;0.21;74.61;102688.63;5096456;28;20400;-80
2021/01/16 09:25:50;;;;;;;35.65;21.67;;;;;;;0.23;73.98;102688.50;5096531;28;20099;-80
2021/01/16 09:28:15;;;;;;;30.75;21.27;;;;;;;0.21;74.56;102683.31;5096809;28;20044;-80
2021/01/16 09:30:43;;;;;;;34.33;21.50;;;;;;;0.26;73.75;102685.63;5096504;28;20055;-80
2021/01/16 09:33:25;;;;;;;30.02;20.80;;;;;;;0.31;73.85;102687.91;5095304;28;20245;-80
2021/01/16 09:35:52;;;;;;;31.38;21.05;;;;;;;0.30;73.78;102683.56;5096372;28;20027;-80
2021/01/16 09:38:33;;;;;;;31.90;21.52;;;;;;;0.30;73.01;102672.94;5096330;28;20044;-80
2021/01/16 09:40:58;;;;;;;31.73;21.67;;;;;;;0.37;74.89;102684.78;5096371;28;20028;-80
2021/01/16 09:43:26;;;;;;;31.07;21.03;;;;;;;0.39;74.25;102686.38;5095380;28;20069;-80
2021/01/16 09:45:55;;;;;;;32.22;20.98;;;;;;;0.42;73.72;102687.94;5096113;28;20070;-80
2021/01/16 09:48:30;;;;;;;30.10;21.23;;;;;;;0.46;73.63;102679.56;5096331;28;20015;-80
2021/01/16 09:50:57;;;;;;;35.95;22.90;;;;;;;0.45;72.96;102666.41;5096209;28;20299;-80
2021/01/16 09:53:25;;;;;;;39.55;25.60;;;;;;;0.48;72.45;102671.47;5096112;28;20020;-81
2021/01/16 09:55:53;;;;;;;34.72;21.75;;;;;;;0.55;73.14;102672.69;5096034;28;20092;-81
2021/01/16 09:58:40;;;;;;;31.27;20.38;;;;;;;0.62;72.28;102673.88;5095908;28;20084;-79
2021/01/16 10:01:22;;;;;;;31.52;20.70;;;;;;;0.63;71.09;102675.56;5096286;28;20410;-80
2021/01/16 10:04:03;;;;;;;32.22;18.80;;;;;;;0.71;70.99;102681.16;5096058;28;20022;-80
2021/01/16 10:06:35;;;;;;;29.75;18.88;;;;;;;0.73;71.15;102670.38;5094777;28;20247;-80
2021/01/16 10:09:20;;;;;;;29.55;18.02;;;;;;;0.80;70.28;102668.09;5094860;28;20020;-80
2021/01/16 10:11:46;;;;;;;25.70;17.83;;;;;;;0.76;69.04;102665.66;5096078;28;20495;-81
2021/01/16 10:14:20;;;;;;;27.75;16.92;;;;;;;0.81;69.32;102661.78;5099390;28;20020;-79
2021/01/16 10:16:46;;;;;;;25.77;16.55;;;;;;;0.83;68.57;102663.38;5131721;27;20028;-79
2021/01/16 10:19:13;;;;;;;25.02;16.67;;;;;;;0.89;69.06;102662.88;5100014;28;20022;-80
2021/01/16 10:21:55;;;;;;;22.73;15.55;;;;;;;0.93;67.86;102666.13;5098650;28;20036;-80
2021/01/16 10:24:21;;;;;;;23.33;15.57;;;;;;;0.91;68.17;102662.75;5099857;28;20020;-77
2021/01/16 10:26:47;;;;;;;23.45;16.50;;;;;;;0.96;68.10;102657.88;5099836;28;20465;-80
2021/01/16 10:29:38;;;;;;;25.02;15.77;;;;;;;1.04;67.82;102644.81;5099885;28;20024;-76
2021/01/16 10:32:24;;;;;;;23.02;15.57;;;;;;;1.10;68.93;102654.94;5100818;28;20102;-77
2021/01/16 10:34:58;;;;;;;26.40;15.95;;;;;;;1.11;67.75;102643.31;5099760;28;20020;-79
2021/01/16 10:37:24;;;;;;;23.50;15.32;;;;;;;1.10;67.57;102641.63;5099484;28;20036;-80
2021/01/16 10:39:51;;;;;;;;;;;;;;;1.19;66.89;102629.38;5086155;28;20123;-81
2021/01/16 10:42:18;;;;;;;23.85;14.45;;;;;;;1.15;67.17;102615.44;5099850;28;19970;-81
2021/01/16 10:44:44;;;;;;;21.58;15.18;;;;;;;1.16;67.67;102622.47;5098496;28;20008;-82
2021/01/16 10:47:28;;;;;;;;;;;;;;;1.25;67.14;102613.72;5099042;28;20410;-81
2021/01/16 10:49:57;;;;;;;22.95;15.07;;;;;;;1.21;66.93;102611.44;5099081;28;19950;-82
2021/01/16 10:52:29;;;;;;;24.45;16.13;;;;;;;1.18;67.62;102604.56;5099657;28;20108;-80
2021/01/16 10:55:03;;;;;;;25.90;15.63;;;;;;;1.15;66.83;102595.94;5085026;28;20035;-81
2021/01/16 10:57:44;;;;;;;26.38;15.27;;;;;;;1.21;67.30;102603.44;5099494;28;20030;-80
2021/01/16 11:00:13;;;;;;;20.73;14.55;;;;;;;1.18;68.42;102596.56;5099017;28;20440;-79
2021/01/16 11:02:48;;;;;;;21.40;14.27;;;;;;;1.18;67.43;102591.22;5099200;28;20328;-80
2021/01/16 11:05:16;;;;;;;20.55;14.63;;;;;;;1.20;66.11;102597.25;5098148;28;20082;-80
2021/01/16 11:07:43;;;;;;;24.17;15.30;;;;;;;1.18;66.52;102580.56;5098248;28;20031;-79
2021/01/16 11:10:10;;;;;;;20.27;14.30;;;;;;;1.22;66.69;102582.00;5098995;28;20035;-81
2021/01/16 11:12:37;;;;;;;25.02;15.02;;;;;;;1.18;66.86;102577.91;5098734;28;20048;-80
2021/01/16 11:15:23;;;;;;;19.63;13.55;;;;;;;1.26;67.33;102572.75;5099178;28;20111;-81
2021/01/16 11:17:52;;;;;;;25.73;14.35;;;;;;;1.27;67.43;102573.63;5099177;28;20051;-80
2021/01/16 11:20:25;;;;;;;21.80;13.70;;;;;;;1.26;65.96;102569.25;5099138;28;20028;-81
2021/01/16 11:23:28;;;;;;;21.85;14.13;;;;;;;1.31;67.36;102568.88;5084965;28;20039;-79
2021/01/16 11:25:54;;;;;;;22.42;13.95;;;;;;;1.28;66.96;102556.66;5098160;28;20024;-80
2021/01/16 11:28:26;;;;;;;22.35;13.73;;;;;;;1.31;67.18;102548.38;5098906;28;20103;-84